sensor_id;sensor_type;location;lat;lon;timestamp;P1;durP1;ratioP1;P2;durP2;ratioP2
77520;SDS011;66633;47.628;19.158;2023-02-22T00:00:51;8.60;;;3.20;;
77520;SDS011;66633;47.628;19.158;2023-02-22T00:05:42;7.75;;;3.50;;
77520;SDS011;66633;47.628;19.158;2023-02-22T00:08:18;8.13;;;3.08;;
77520;SDS011;66633;47.628;19.158;2023-02-22T00:10:43;7.57;;;3.00;;
77520;SDS011;66633;47.628;19.158;2023-02-22T00:13:10;8.05;;;3.38;;
77520;SDS011;66633;47.628;19.158;2023-02-22T00:15:37;6.95;;;3.10;;
77520;SDS011;66633;47.628;19.158;2023-02-22T00:18:05;8.30;;;4.05;;
77520;SDS011;66633;47.628;19.158;2023-02-22T00:20:31;8.90;;;3.67;;
77520;SDS011;66633;47.628;19.158;2023-02-22T00:22:56;9.07;;;3.43;;
77520;SDS011;66633;47.628;19.158;2023-02-22T00:25:23;8.83;;;3.27;;
77520;SDS011;66633;47.628;19.158;2023-02-22T00:27:49;7.97;;;3.47;;
77520;SDS011;66633;47.628;19.158;2023-02-22T00:30:19;6.93;;;2.83;;
77520;SDS011;66633;47.628;19.158;2023-02-22T00:32:45;7.53;;;3.45;;
77520;SDS011;66633;47.628;19.158;2023-02-22T00:35:11;7.78;;;3.85;;
77520;SDS011;66633;47.628;19.158;2023-02-22T00:37:37;7.38;;;3.40;;
77520;SDS011;66633;47.628;19.158;2023-02-22T00:40:06;6.43;;;2.85;;
77520;SDS011;66633;47.628;19.158;2023-02-22T00:42:32;7.38;;;3.33;;
77520;SDS011;66633;47.628;19.158;2023-02-22T00:44:57;7.87;;;3.40;;
77520;SDS011;66633;47.628;19.158;2023-02-22T00:47:22;7.90;;;3.40;;
77520;SDS011;66633;47.628;19.158;2023-02-22T00:49:50;7.55;;;3.30;;
77520;SDS011;66633;47.628;19.158;2023-02-22T00:52:15;7.97;;;3.50;;
77520;SDS011;66633;47.628;19.158;2023-02-22T00:54:41;7.35;;;3.40;;
77520;SDS011;66633;47.628;19.158;2023-02-22T00:57:06;7.22;;;3.42;;
77520;SDS011;66633;47.628;19.158;2023-02-22T00:59:31;7.78;;;3.08;;
77520;SDS011;66633;47.628;19.158;2023-02-22T01:01:57;7.80;;;3.45;;
77520;SDS011;66633;47.628;19.158;2023-02-22T01:04:22;6.88;;;2.75;;
77520;SDS011;66633;47.628;19.158;2023-02-22T01:06:47;7.07;;;2.60;;
77520;SDS011;66633;47.628;19.158;2023-02-22T01:09:13;5.07;;;2.08;;
77520;SDS011;66633;47.628;19.158;2023-02-22T01:11:38;7.77;;;3.10;;
77520;SDS011;66633;47.628;19.158;2023-02-22T01:14:03;5.23;;;2.33;;
77520;SDS011;66633;47.628;19.158;2023-02-22T01:16:28;8.03;;;3.33;;
77520;SDS011;66633;47.628;19.158;2023-02-22T01:18:54;6.85;;;3.00;;
77520;SDS011;66633;47.628;19.158;2023-02-22T01:21:19;8.63;;;3.30;;
77520;SDS011;66633;47.628;19.158;2023-02-22T01:23:44;7.35;;;3.40;;
77520;SDS011;66633;47.628;19.158;2023-02-22T01:26:10;9.07;;;3.30;;
77520;SDS011;66633;47.628;19.158;2023-02-22T01:28:36;7.70;;;3.10;;
77520;SDS011;66633;47.628;19.158;2023-02-22T01:31:01;8.88;;;3.00;;
77520;SDS011;66633;47.628;19.158;2023-02-22T01:33:27;6.53;;;3.28;;
77520;SDS011;66633;47.628;19.158;2023-02-22T01:35:52;8.98;;;2.95;;
77520;SDS011;66633;47.628;19.158;2023-02-22T01:38:17;8.43;;;3.73;;
77520;SDS011;66633;47.628;19.158;2023-02-22T01:40:45;7.05;;;3.20;;
77520;SDS011;66633;47.628;19.158;2023-02-22T01:45:50;7.97;;;3.30;;
77520;SDS011;66633;47.628;19.158;2023-02-22T01:53:43;6.90;;;3.38;;
77520;SDS011;66633;47.628;19.158;2023-02-22T01:56:10;7.30;;;3.22;;
77520;SDS011;66633;47.628;19.158;2023-02-22T01:58:36;7.35;;;3.35;;
77520;SDS011;66633;47.628;19.158;2023-02-22T02:01:02;6.85;;;3.22;;
77520;SDS011;66633;47.628;19.158;2023-02-22T02:03:28;7.40;;;3.15;;
77520;SDS011;66633;47.628;19.158;2023-02-22T02:05:55;6.70;;;3.00;;
77520;SDS011;66633;47.628;19.158;2023-02-22T02:10:57;6.50;;;2.28;;
77520;SDS011;66633;47.628;19.158;2023-02-22T02:13:23;5.95;;;2.95;;
77520;SDS011;66633;47.628;19.158;2023-02-22T02:15:48;5.68;;;2.50;;
77520;SDS011;66633;47.628;19.158;2023-02-22T02:18:16;5.05;;;2.40;;
77520;SDS011;66633;47.628;19.158;2023-02-22T02:33:48;6.30;;;3.00;;
77520;SDS011;66633;47.628;19.158;2023-02-22T02:36:16;6.88;;;3.75;;
77520;SDS011;66633;47.628;19.158;2023-02-22T02:38:53;7.45;;;2.92;;
77520;SDS011;66633;47.628;19.158;2023-02-22T02:41:29;6.72;;;2.97;;
77520;SDS011;66633;47.628;19.158;2023-02-22T02:44:04;7.47;;;3.70;;
77520;SDS011;66633;47.628;19.158;2023-02-22T02:48:59;5.83;;;3.10;;
77520;SDS011;66633;47.628;19.158;2023-02-22T02:51:29;7.07;;;3.10;;
77520;SDS011;66633;47.628;19.158;2023-02-22T02:53:56;6.47;;;3.33;;
77520;SDS011;66633;47.628;19.158;2023-02-22T02:56:22;7.47;;;3.40;;
77520;SDS011;66633;47.628;19.158;2023-02-22T02:58:49;6.90;;;3.20;;
77520;SDS011;66633;47.628;19.158;2023-02-22T03:04:04;9.18;;;3.20;;
77520;SDS011;66633;47.628;19.158;2023-02-22T03:12:06;7.82;;;3.40;;
77520;SDS011;66633;47.628;19.158;2023-02-22T03:17:00;7.05;;;2.72;;
77520;SDS011;66633;47.628;19.158;2023-02-22T03:19:36;5.90;;;2.20;;
77520;SDS011;66633;47.628;19.158;2023-02-22T03:26:59;7.40;;;3.53;;
77520;SDS011;66633;47.628;19.158;2023-02-22T03:29:27;6.93;;;3.17;;
77520;SDS011;66633;47.628;19.158;2023-02-22T03:31:57;6.95;;;3.60;;
77520;SDS011;66633;47.628;19.158;2023-02-22T03:34:26;7.22;;;3.15;;
77520;SDS011;66633;47.628;19.158;2023-02-22T03:36:55;9.90;;;3.80;;
77520;SDS011;66633;47.628;19.158;2023-02-22T03:39:22;7.70;;;3.50;;
77520;SDS011;66633;47.628;19.158;2023-02-22T03:41:55;7.65;;;3.50;;
77520;SDS011;66633;47.628;19.158;2023-02-22T03:44:22;6.50;;;2.80;;
77520;SDS011;66633;47.628;19.158;2023-02-22T03:46:48;7.35;;;3.58;;
77520;SDS011;66633;47.628;19.158;2023-02-22T03:51:49;7.85;;;3.42;;
77520;SDS011;66633;47.628;19.158;2023-02-22T03:54:14;7.20;;;2.75;;
77520;SDS011;66633;47.628;19.158;2023-02-22T03:56:44;6.43;;;3.00;;
77520;SDS011;66633;47.628;19.158;2023-02-22T03:59:14;6.40;;;2.97;;
77520;SDS011;66633;47.628;19.158;2023-02-22T04:01:39;6.50;;;2.65;;
77520;SDS011;66633;47.628;19.158;2023-02-22T04:04:04;6.35;;;2.72;;
77520;SDS011;66633;47.628;19.158;2023-02-22T04:06:29;7.40;;;3.17;;
77520;SDS011;66633;47.628;19.158;2023-02-22T04:08:55;7.38;;;2.58;;
77520;SDS011;66633;47.628;19.158;2023-02-22T04:11:20;9.60;;;3.63;;
77520;SDS011;66633;47.628;19.158;2023-02-22T04:13:45;8.10;;;3.57;;
77520;SDS011;66633;47.628;19.158;2023-02-22T04:16:11;7.38;;;3.30;;
77520;SDS011;66633;47.628;19.158;2023-02-22T04:18:36;6.53;;;3.28;;
77520;SDS011;66633;47.628;19.158;2023-02-22T04:21:01;8.10;;;3.53;;
77520;SDS011;66633;47.628;19.158;2023-02-22T04:23:26;8.18;;;3.50;;
77520;SDS011;66633;47.628;19.158;2023-02-22T04:25:52;6.60;;;2.92;;
77520;SDS011;66633;47.628;19.158;2023-02-22T04:28:17;6.50;;;3.13;;
77520;SDS011;66633;47.628;19.158;2023-02-22T04:30:43;8.30;;;3.03;;
77520;SDS011;66633;47.628;19.158;2023-02-22T04:33:09;7.40;;;3.53;;
77520;SDS011;66633;47.628;19.158;2023-02-22T04:35:35;8.45;;;3.92;;
77520;SDS011;66633;47.628;19.158;2023-02-22T04:38:00;8.17;;;3.90;;
77520;SDS011;66633;47.628;19.158;2023-02-22T04:40:26;7.85;;;3.38;;
77520;SDS011;66633;47.628;19.158;2023-02-22T04:42:51;6.30;;;2.80;;
77520;SDS011;66633;47.628;19.158;2023-02-22T04:45:17;6.18;;;2.60;;
77520;SDS011;66633;47.628;19.158;2023-02-22T04:47:42;6.47;;;3.20;;
77520;SDS011;66633;47.628;19.158;2023-02-22T04:50:08;7.70;;;3.80;;
77520;SDS011;66633;47.628;19.158;2023-02-22T04:52:35;6.72;;;2.70;;
77520;SDS011;66633;47.628;19.158;2023-02-22T04:55:00;5.60;;;2.37;;
77520;SDS011;66633;47.628;19.158;2023-02-22T04:57:25;5.63;;;2.20;;
77520;SDS011;66633;47.628;19.158;2023-02-22T04:59:51;5.63;;;2.53;;
77520;SDS011;66633;47.628;19.158;2023-02-22T05:02:16;6.80;;;2.90;;
77520;SDS011;66633;47.628;19.158;2023-02-22T05:04:42;7.60;;;4.13;;
77520;SDS011;66633;47.628;19.158;2023-02-22T05:07:07;7.15;;;3.10;;
77520;SDS011;66633;47.628;19.158;2023-02-22T05:09:32;6.38;;;2.90;;
77520;SDS011;66633;47.628;19.158;2023-02-22T05:11:58;6.85;;;3.17;;
77520;SDS011;66633;47.628;19.158;2023-02-22T05:14:23;7.07;;;3.30;;
77520;SDS011;66633;47.628;19.158;2023-02-22T05:16:51;6.15;;;2.63;;
77520;SDS011;66633;47.628;19.158;2023-02-22T05:19:17;6.43;;;2.78;;
77520;SDS011;66633;47.628;19.158;2023-02-22T05:21:43;8.23;;;3.67;;
77520;SDS011;66633;47.628;19.158;2023-02-22T05:24:08;7.32;;;3.58;;
77520;SDS011;66633;47.628;19.158;2023-02-22T05:26:33;7.97;;;3.23;;
77520;SDS011;66633;47.628;19.158;2023-02-22T05:28:58;6.20;;;2.70;;
77520;SDS011;66633;47.628;19.158;2023-02-22T05:31:24;8.83;;;3.67;;
77520;SDS011;66633;47.628;19.158;2023-02-22T05:33:50;8.33;;;3.80;;
77520;SDS011;66633;47.628;19.158;2023-02-22T05:36:15;6.07;;;2.40;;
77520;SDS011;66633;47.628;19.158;2023-02-22T05:38:41;6.18;;;2.63;;
77520;SDS011;66633;47.628;19.158;2023-02-22T05:41:07;7.18;;;3.42;;
77520;SDS011;66633;47.628;19.158;2023-02-22T05:43:32;8.13;;;2.65;;
77520;SDS011;66633;47.628;19.158;2023-02-22T05:45:57;7.93;;;3.97;;
77520;SDS011;66633;47.628;19.158;2023-02-22T05:48:23;7.77;;;3.53;;
77520;SDS011;66633;47.628;19.158;2023-02-22T05:50:48;10.60;;;4.57;;
77520;SDS011;66633;47.628;19.158;2023-02-22T05:53:13;8.23;;;4.05;;
77520;SDS011;66633;47.628;19.158;2023-02-22T05:55:39;12.83;;;3.93;;
77520;SDS011;66633;47.628;19.158;2023-02-22T05:58:04;6.80;;;2.53;;
77520;SDS011;66633;47.628;19.158;2023-02-22T06:00:30;9.48;;;4.28;;
77520;SDS011;66633;47.628;19.158;2023-02-22T06:02:55;8.90;;;3.88;;
77520;SDS011;66633;47.628;19.158;2023-02-22T06:05:22;7.63;;;3.15;;
77520;SDS011;66633;47.628;19.158;2023-02-22T06:07:47;9.20;;;4.00;;
77520;SDS011;66633;47.628;19.158;2023-02-22T06:10:12;10.00;;;4.80;;
77520;SDS011;66633;47.628;19.158;2023-02-22T06:12:38;9.77;;;4.20;;
77520;SDS011;66633;47.628;19.158;2023-02-22T06:15:03;7.25;;;3.53;;
77520;SDS011;66633;47.628;19.158;2023-02-22T06:17:28;11.43;;;5.55;;
77520;SDS011;66633;47.628;19.158;2023-02-22T06:19:54;36.35;;;13.10;;
77520;SDS011;66633;47.628;19.158;2023-02-22T06:22:20;38.53;;;14.88;;
77520;SDS011;66633;47.628;19.158;2023-02-22T06:24:45;50.88;;;19.42;;
77520;SDS011;66633;47.628;19.158;2023-02-22T06:27:10;72.00;;;26.33;;
77520;SDS011;66633;47.628;19.158;2023-02-22T06:29:35;49.38;;;21.92;;
77520;SDS011;66633;47.628;19.158;2023-02-22T06:32:01;47.03;;;19.03;;
77520;SDS011;66633;47.628;19.158;2023-02-22T06:34:26;30.70;;;13.97;;
77520;SDS011;66633;47.628;19.158;2023-02-22T06:36:51;29.07;;;12.73;;
77520;SDS011;66633;47.628;19.158;2023-02-22T06:39:17;29.10;;;15.15;;
77520;SDS011;66633;47.628;19.158;2023-02-22T06:41:43;21.90;;;10.05;;
77520;SDS011;66633;47.628;19.158;2023-02-22T06:44:09;21.05;;;10.23;;
77520;SDS011;66633;47.628;19.158;2023-02-22T06:46:35;20.95;;;9.73;;
77520;SDS011;66633;47.628;19.158;2023-02-22T06:49:00;23.85;;;10.68;;
77520;SDS011;66633;47.628;19.158;2023-02-22T06:51:26;23.90;;;12.07;;
77520;SDS011;66633;47.628;19.158;2023-02-22T06:53:51;21.40;;;10.88;;
77520;SDS011;66633;47.628;19.158;2023-02-22T06:56:17;21.00;;;9.57;;
77520;SDS011;66633;47.628;19.158;2023-02-22T06:58:43;18.90;;;9.85;;
77520;SDS011;66633;47.628;19.158;2023-02-22T07:01:08;15.30;;;7.73;;
77520;SDS011;66633;47.628;19.158;2023-02-22T07:03:33;14.30;;;7.67;;
77520;SDS011;66633;47.628;19.158;2023-02-22T07:05:59;16.17;;;8.77;;
77520;SDS011;66633;47.628;19.158;2023-02-22T07:08:24;17.15;;;9.45;;
77520;SDS011;66633;47.628;19.158;2023-02-22T07:10:50;17.98;;;9.18;;
77520;SDS011;66633;47.628;19.158;2023-02-22T07:13:17;11.65;;;6.32;;
77520;SDS011;66633;47.628;19.158;2023-02-22T07:15:42;12.10;;;6.67;;
77520;SDS011;66633;47.628;19.158;2023-02-22T07:18:07;15.00;;;8.10;;
77520;SDS011;66633;47.628;19.158;2023-02-22T07:20:32;14.82;;;8.35;;
77520;SDS011;66633;47.628;19.158;2023-02-22T07:22:58;17.38;;;10.20;;
77520;SDS011;66633;47.628;19.158;2023-02-22T07:25:23;20.58;;;10.77;;
77520;SDS011;66633;47.628;19.158;2023-02-22T07:27:49;19.50;;;10.57;;
77520;SDS011;66633;47.628;19.158;2023-02-22T07:30:17;16.48;;;9.88;;
77520;SDS011;66633;47.628;19.158;2023-02-22T07:32:43;16.52;;;9.05;;
77520;SDS011;66633;47.628;19.158;2023-02-22T07:35:19;18.30;;;10.02;;
77520;SDS011;66633;47.628;19.158;2023-02-22T07:37:44;15.88;;;10.05;;
77520;SDS011;66633;47.628;19.158;2023-02-22T07:40:10;16.15;;;9.25;;
77520;SDS011;66633;47.628;19.158;2023-02-22T07:45:20;12.63;;;6.35;;
77520;SDS011;66633;47.628;19.158;2023-02-22T07:47:46;16.55;;;9.43;;
77520;SDS011;66633;47.628;19.158;2023-02-22T07:50:12;16.20;;;7.90;;
77520;SDS011;66633;47.628;19.158;2023-02-22T07:52:38;13.00;;;7.93;;
77520;SDS011;66633;47.628;19.158;2023-02-22T07:55:03;11.73;;;6.68;;
77520;SDS011;66633;47.628;19.158;2023-02-22T07:57:31;18.67;;;9.70;;
77520;SDS011;66633;47.628;19.158;2023-02-22T07:59:57;17.35;;;10.95;;
77520;SDS011;66633;47.628;19.158;2023-02-22T08:02:22;12.63;;;7.10;;
77520;SDS011;66633;47.628;19.158;2023-02-22T08:04:48;15.85;;;9.25;;
77520;SDS011;66633;47.628;19.158;2023-02-22T08:07:14;12.40;;;7.73;;
77520;SDS011;66633;47.628;19.158;2023-02-22T08:09:39;12.77;;;7.23;;
77520;SDS011;66633;47.628;19.158;2023-02-22T08:12:04;13.20;;;7.37;;
77520;SDS011;66633;47.628;19.158;2023-02-22T08:14:30;9.10;;;4.85;;
77520;SDS011;66633;47.628;19.158;2023-02-22T08:16:55;10.47;;;5.20;;
77520;SDS011;66633;47.628;19.158;2023-02-22T08:19:20;10.10;;;5.00;;
77520;SDS011;66633;47.628;19.158;2023-02-22T08:21:46;9.77;;;5.20;;
77520;SDS011;66633;47.628;19.158;2023-02-22T08:24:12;10.57;;;5.40;;
77520;SDS011;66633;47.628;19.158;2023-02-22T08:26:42;8.37;;;4.87;;
77520;SDS011;66633;47.628;19.158;2023-02-22T08:29:08;8.73;;;5.07;;
77520;SDS011;66633;47.628;19.158;2023-02-22T08:31:33;10.37;;;5.90;;
77520;SDS011;66633;47.628;19.158;2023-02-22T08:33:58;9.30;;;5.07;;
77520;SDS011;66633;47.628;19.158;2023-02-22T08:36:25;10.25;;;5.70;;
77520;SDS011;66633;47.628;19.158;2023-02-22T08:38:51;9.30;;;5.35;;
77520;SDS011;66633;47.628;19.158;2023-02-22T08:41:16;8.93;;;5.00;;
77520;SDS011;66633;47.628;19.158;2023-02-22T08:43:41;10.67;;;6.50;;
77520;SDS011;66633;47.628;19.158;2023-02-22T08:46:06;9.43;;;5.80;;
77520;SDS011;66633;47.628;19.158;2023-02-22T08:48:32;9.07;;;5.43;;
77520;SDS011;66633;47.628;19.158;2023-02-22T08:50:57;12.47;;;5.10;;
77520;SDS011;66633;47.628;19.158;2023-02-22T08:53:22;8.40;;;5.07;;
77520;SDS011;66633;47.628;19.158;2023-02-22T08:55:48;9.65;;;5.50;;
77520;SDS011;66633;47.628;19.158;2023-02-22T08:58:13;9.55;;;5.53;;
77520;SDS011;66633;47.628;19.158;2023-02-22T09:00:39;8.27;;;4.78;;
77520;SDS011;66633;47.628;19.158;2023-02-22T09:03:06;8.18;;;5.03;;
77520;SDS011;66633;47.628;19.158;2023-02-22T09:05:31;7.25;;;4.43;;
77520;SDS011;66633;47.628;19.158;2023-02-22T09:07:56;8.18;;;4.45;;
77520;SDS011;66633;47.628;19.158;2023-02-22T09:10:23;8.95;;;4.45;;
77520;SDS011;66633;47.628;19.158;2023-02-22T09:12:49;9.07;;;5.20;;
77520;SDS011;66633;47.628;19.158;2023-02-22T09:15:15;7.95;;;4.70;;
77520;SDS011;66633;47.628;19.158;2023-02-22T09:17:40;8.33;;;4.27;;
77520;SDS011;66633;47.628;19.158;2023-02-22T09:20:06;6.55;;;3.65;;
77520;SDS011;66633;47.628;19.158;2023-02-22T09:22:32;8.07;;;4.32;;
77520;SDS011;66633;47.628;19.158;2023-02-22T09:24:57;8.02;;;5.22;;
77520;SDS011;66633;47.628;19.158;2023-02-22T09:27:22;9.98;;;6.00;;
77520;SDS011;66633;47.628;19.158;2023-02-22T09:29:48;8.97;;;4.80;;
77520;SDS011;66633;47.628;19.158;2023-02-22T09:32:14;9.65;;;5.32;;
77520;SDS011;66633;47.628;19.158;2023-02-22T09:34:42;9.00;;;5.22;;
77520;SDS011;66633;47.628;19.158;2023-02-22T09:37:09;9.43;;;4.85;;
77520;SDS011;66633;47.628;19.158;2023-02-22T09:39:35;9.02;;;5.30;;
77520;SDS011;66633;47.628;19.158;2023-02-22T09:42:02;8.07;;;5.03;;
77520;SDS011;66633;47.628;19.158;2023-02-22T09:47:00;8.10;;;4.95;;
77520;SDS011;66633;47.628;19.158;2023-02-22T09:49:49;9.02;;;4.90;;
77520;SDS011;66633;47.628;19.158;2023-02-22T09:52:17;8.10;;;5.10;;
77520;SDS011;66633;47.628;19.158;2023-02-22T09:54:46;8.43;;;4.80;;
77520;SDS011;66633;47.628;19.158;2023-02-22T09:59:50;8.27;;;5.25;;
77520;SDS011;66633;47.628;19.158;2023-02-22T10:04:48;8.60;;;5.47;;
77520;SDS011;66633;47.628;19.158;2023-02-22T10:07:19;7.97;;;4.53;;
77520;SDS011;66633;47.628;19.158;2023-02-22T10:09:46;8.10;;;5.28;;
77520;SDS011;66633;47.628;19.158;2023-02-22T10:14:50;7.93;;;5.13;;
77520;SDS011;66633;47.628;19.158;2023-02-22T10:17:31;8.13;;;4.80;;
77520;SDS011;66633;47.628;19.158;2023-02-22T10:27:51;10.73;;;4.88;;
77520;SDS011;66633;47.628;19.158;2023-02-22T10:30:22;8.10;;;4.75;;
77520;SDS011;66633;47.628;19.158;2023-02-22T10:32:54;7.82;;;4.80;;
77520;SDS011;66633;47.628;19.158;2023-02-22T10:35:21;8.52;;;4.63;;
77520;SDS011;66633;47.628;19.158;2023-02-22T10:37:47;8.20;;;4.78;;
77520;SDS011;66633;47.628;19.158;2023-02-22T10:40:15;8.57;;;4.55;;
77520;SDS011;66633;47.628;19.158;2023-02-22T10:42:48;7.45;;;4.88;;
77520;SDS011;66633;47.628;19.158;2023-02-22T10:47:43;7.90;;;4.43;;
77520;SDS011;66633;47.628;19.158;2023-02-22T10:50:11;8.27;;;4.40;;
77520;SDS011;66633;47.628;19.158;2023-02-22T10:52:37;7.57;;;4.70;;
77520;SDS011;66633;47.628;19.158;2023-02-22T10:55:02;9.23;;;5.20;;
77520;SDS011;66633;47.628;19.158;2023-02-22T10:57:28;8.93;;;5.38;;
77520;SDS011;66633;47.628;19.158;2023-02-22T10:59:55;7.63;;;4.30;;
77520;SDS011;66633;47.628;19.158;2023-02-22T11:02:31;7.30;;;4.18;;
77520;SDS011;66633;47.628;19.158;2023-02-22T11:04:58;7.78;;;4.90;;
77520;SDS011;66633;47.628;19.158;2023-02-22T11:09:53;10.50;;;5.77;;
77520;SDS011;66633;47.628;19.158;2023-02-22T11:12:31;9.00;;;5.75;;
77520;SDS011;66633;47.628;19.158;2023-02-22T11:14:56;8.77;;;5.20;;
77520;SDS011;66633;47.628;19.158;2023-02-22T11:17:30;8.55;;;5.78;;
77520;SDS011;66633;47.628;19.158;2023-02-22T11:19:55;9.82;;;5.72;;
77520;SDS011;66633;47.628;19.158;2023-02-22T11:22:22;10.77;;;5.70;;
77520;SDS011;66633;47.628;19.158;2023-02-22T11:24:54;8.77;;;4.90;;
77520;SDS011;66633;47.628;19.158;2023-02-22T11:27:23;8.50;;;4.85;;
77520;SDS011;66633;47.628;19.158;2023-02-22T11:29:49;9.45;;;5.47;;
77520;SDS011;66633;47.628;19.158;2023-02-22T11:32:17;9.13;;;5.50;;
77520;SDS011;66633;47.628;19.158;2023-02-22T11:34:48;24.40;;;15.77;;
77520;SDS011;66633;47.628;19.158;2023-02-22T11:42:48;10.05;;;7.05;;
77520;SDS011;66633;47.628;19.158;2023-02-22T11:45:19;11.25;;;7.53;;
77520;SDS011;66633;47.628;19.158;2023-02-22T11:47:51;11.23;;;6.38;;
77520;SDS011;66633;47.628;19.158;2023-02-22T11:50:26;12.70;;;7.35;;
77520;SDS011;66633;47.628;19.158;2023-02-22T11:53:04;11.48;;;6.75;;
77520;SDS011;66633;47.628;19.158;2023-02-22T11:55:38;8.00;;;4.90;;
77520;SDS011;66633;47.628;19.158;2023-02-22T12:00:56;9.23;;;5.80;;
77520;SDS011;66633;47.628;19.158;2023-02-22T12:08:31;9.35;;;5.80;;
77520;SDS011;66633;47.628;19.158;2023-02-22T12:13:47;11.38;;;7.95;;
77520;SDS011;66633;47.628;19.158;2023-02-22T12:16:36;10.52;;;6.25;;
77520;SDS011;66633;47.628;19.158;2023-02-22T12:19:30;11.05;;;6.90;;
77520;SDS011;66633;47.628;19.158;2023-02-22T12:22:00;12.00;;;7.15;;
77520;SDS011;66633;47.628;19.158;2023-02-22T12:25:09;10.88;;;5.88;;
77520;SDS011;66633;47.628;19.158;2023-02-22T12:27:42;9.80;;;5.65;;
77520;SDS011;66633;47.628;19.158;2023-02-22T12:30:14;11.68;;;6.25;;
77520;SDS011;66633;47.628;19.158;2023-02-22T12:32:45;13.57;;;7.15;;
77520;SDS011;66633;47.628;19.158;2023-02-22T12:35:18;13.55;;;7.10;;
77520;SDS011;66633;47.628;19.158;2023-02-22T12:37:50;11.02;;;6.68;;
77520;SDS011;66633;47.628;19.158;2023-02-22T12:40:36;13.18;;;6.65;;
77520;SDS011;66633;47.628;19.158;2023-02-22T12:43:09;10.82;;;6.28;;
77520;SDS011;66633;47.628;19.158;2023-02-22T12:45:42;9.85;;;5.53;;
77520;SDS011;66633;47.628;19.158;2023-02-22T12:48:15;11.15;;;5.53;;
77520;SDS011;66633;47.628;19.158;2023-02-22T12:50:45;10.05;;;5.85;;
77520;SDS011;66633;47.628;19.158;2023-02-22T12:55:42;10.15;;;5.57;;
77520;SDS011;66633;47.628;19.158;2023-02-22T12:58:17;10.20;;;5.75;;
77520;SDS011;66633;47.628;19.158;2023-02-22T13:00:46;11.35;;;5.88;;
77520;SDS011;66633;47.628;19.158;2023-02-22T13:05:39;10.07;;;5.33;;
77520;SDS011;66633;47.628;19.158;2023-02-22T13:08:09;13.68;;;8.20;;
77520;SDS011;66633;47.628;19.158;2023-02-22T13:20:44;13.70;;;7.90;;
77520;SDS011;66633;47.628;19.158;2023-02-22T13:25:53;12.65;;;6.43;;
77520;SDS011;66633;47.628;19.158;2023-02-22T13:51:58;11.63;;;7.25;;
77520;SDS011;66633;47.628;19.158;2023-02-22T13:56:50;14.10;;;8.43;;
77520;SDS011;66633;47.628;19.158;2023-02-22T13:59:27;12.93;;;6.63;;
77520;SDS011;66633;47.628;19.158;2023-02-22T14:01:53;11.00;;;7.10;;
77520;SDS011;66633;47.628;19.158;2023-02-22T14:06:51;18.10;;;9.23;;
77520;SDS011;66633;47.628;19.158;2023-02-22T14:09:40;17.33;;;8.07;;
77520;SDS011;66633;47.628;19.158;2023-02-22T14:12:02;12.05;;;7.15;;
77520;SDS011;66633;47.628;19.158;2023-02-22T14:14:27;10.95;;;6.68;;
77520;SDS011;66633;47.628;19.158;2023-02-22T14:19:36;13.45;;;7.97;;
77520;SDS011;66633;47.628;19.158;2023-02-22T14:22:02;11.05;;;6.40;;
77520;SDS011;66633;47.628;19.158;2023-02-22T14:24:49;10.63;;;5.55;;
77520;SDS011;66633;47.628;19.158;2023-02-22T14:27:15;13.00;;;7.15;;
77520;SDS011;66633;47.628;19.158;2023-02-22T14:29:50;10.35;;;6.53;;
77520;SDS011;66633;47.628;19.158;2023-02-22T14:32:17;11.60;;;6.20;;
77520;SDS011;66633;47.628;19.158;2023-02-22T14:39:48;13.10;;;7.43;;
77520;SDS011;66633;47.628;19.158;2023-02-22T14:47:54;9.93;;;5.88;;
77520;SDS011;66633;47.628;19.158;2023-02-22T14:50:42;9.82;;;6.00;;
77520;SDS011;66633;47.628;19.158;2023-02-22T14:55:46;13.10;;;6.25;;
77520;SDS011;66633;47.628;19.158;2023-02-22T14:58:22;12.32;;;7.03;;
77520;SDS011;66633;47.628;19.158;2023-02-22T15:00:50;10.65;;;6.10;;
77520;SDS011;66633;47.628;19.158;2023-02-22T15:05:48;11.00;;;4.60;;
77520;SDS011;66633;47.628;19.158;2023-02-22T15:08:14;10.68;;;6.10;;
77520;SDS011;66633;47.628;19.158;2023-02-22T15:10:44;8.73;;;5.15;;
77520;SDS011;66633;47.628;19.158;2023-02-22T15:13:15;10.35;;;6.05;;
77520;SDS011;66633;47.628;19.158;2023-02-22T15:15:41;11.98;;;6.40;;
77520;SDS011;66633;47.628;19.158;2023-02-22T15:20:40;14.00;;;7.75;;
77520;SDS011;66633;47.628;19.158;2023-02-22T15:23:06;14.88;;;7.43;;
77520;SDS011;66633;47.628;19.158;2023-02-22T15:25:31;17.13;;;8.35;;
77520;SDS011;66633;47.628;19.158;2023-02-22T15:27:59;16.65;;;8.25;;
77520;SDS011;66633;47.628;19.158;2023-02-22T15:30:26;16.15;;;8.65;;
77520;SDS011;66633;47.628;19.158;2023-02-22T15:32:52;18.85;;;10.57;;
77520;SDS011;66633;47.628;19.158;2023-02-22T15:35:19;16.65;;;8.05;;
77520;SDS011;66633;47.628;19.158;2023-02-22T15:37:56;16.73;;;8.55;;
77520;SDS011;66633;47.628;19.158;2023-02-22T15:40:21;14.55;;;7.47;;
77520;SDS011;66633;47.628;19.158;2023-02-22T15:42:47;16.70;;;7.83;;
77520;SDS011;66633;47.628;19.158;2023-02-22T15:45:14;13.75;;;7.22;;
77520;SDS011;66633;47.628;19.158;2023-02-22T15:47:40;12.07;;;6.95;;
77520;SDS011;66633;47.628;19.158;2023-02-22T15:52:39;11.93;;;6.38;;
77520;SDS011;66633;47.628;19.158;2023-02-22T15:55:10;13.40;;;8.45;;
77520;SDS011;66633;47.628;19.158;2023-02-22T15:57:35;10.30;;;6.05;;
77520;SDS011;66633;47.628;19.158;2023-02-22T16:00:01;11.52;;;6.40;;
77520;SDS011;66633;47.628;19.158;2023-02-22T16:02:33;9.75;;;5.50;;
77520;SDS011;66633;47.628;19.158;2023-02-22T16:07:24;11.68;;;5.25;;
77520;SDS011;66633;47.628;19.158;2023-02-22T16:09:49;13.85;;;6.30;;
77520;SDS011;66633;47.628;19.158;2023-02-22T16:14:43;12.98;;;6.53;;
77520;SDS011;66633;47.628;19.158;2023-02-22T16:17:51;14.82;;;6.68;;
77520;SDS011;66633;47.628;19.158;2023-02-22T16:22:35;12.77;;;5.38;;
77520;SDS011;66633;47.628;19.158;2023-02-22T16:25:11;14.20;;;7.78;;
77520;SDS011;66633;47.628;19.158;2023-02-22T16:27:41;15.93;;;7.95;;
77520;SDS011;66633;47.628;19.158;2023-02-22T16:32:46;14.63;;;7.65;;
77520;SDS011;66633;47.628;19.158;2023-02-22T16:35:11;17.25;;;8.35;;
77520;SDS011;66633;47.628;19.158;2023-02-22T16:37:53;13.48;;;6.93;;
77520;SDS011;66633;47.628;19.158;2023-02-22T16:42:50;15.30;;;6.15;;
77520;SDS011;66633;47.628;19.158;2023-02-22T16:45:19;12.43;;;5.75;;
77520;SDS011;66633;47.628;19.158;2023-02-22T16:47:44;14.32;;;7.18;;
77520;SDS011;66633;47.628;19.158;2023-02-22T16:50:10;17.98;;;7.60;;
77520;SDS011;66633;47.628;19.158;2023-02-22T16:52:39;15.93;;;7.05;;
77520;SDS011;66633;47.628;19.158;2023-02-22T16:55:05;14.32;;;6.28;;
77520;SDS011;66633;47.628;19.158;2023-02-22T16:57:33;17.20;;;6.65;;
77520;SDS011;66633;47.628;19.158;2023-02-22T16:59:59;14.10;;;6.85;;
77520;SDS011;66633;47.628;19.158;2023-02-22T17:02:24;13.73;;;6.40;;
77520;SDS011;66633;47.628;19.158;2023-02-22T17:04:51;14.73;;;6.32;;
77520;SDS011;66633;47.628;19.158;2023-02-22T17:07:18;22.65;;;9.82;;
77520;SDS011;66633;47.628;19.158;2023-02-22T17:09:44;20.48;;;8.75;;
77520;SDS011;66633;47.628;19.158;2023-02-22T17:12:10;18.10;;;9.00;;
77520;SDS011;66633;47.628;19.158;2023-02-22T17:14:35;22.25;;;9.23;;
77520;SDS011;66633;47.628;19.158;2023-02-22T17:17:01;20.90;;;8.57;;
77520;SDS011;66633;47.628;19.158;2023-02-22T17:19:28;14.95;;;7.35;;
77520;SDS011;66633;47.628;19.158;2023-02-22T17:21:53;15.60;;;6.70;;